createdAt,value
2022-12-06T00:00:09.686Z,11.50
2022-12-06T00:02:37.783Z,11.00
2022-12-06T00:05:06.293Z,9.65
2022-12-06T00:07:35.643Z,12.48
2022-12-06T00:10:03.605Z,8.25
2022-12-06T00:12:31.904Z,8.90
2022-12-06T00:14:59.829Z,8.35
2022-12-06T00:17:28.386Z,8.90
2022-12-06T00:19:56.448Z,10.50
2022-12-06T00:22:24.685Z,10.18
2022-12-06T00:24:54.009Z,10.18
2022-12-06T00:27:21.917Z,8.40
2022-12-06T00:29:50.124Z,8.43
2022-12-06T00:32:19.871Z,8.43
2022-12-06T00:34:47.967Z,7.57
2022-12-06T00:37:15.912Z,8.48
2022-12-06T00:39:43.825Z,10.02
2022-12-06T00:42:13.201Z,7.18
2022-12-06T00:44:41.125Z,10.68
2022-12-06T00:47:09.091Z,8.50
2022-12-06T00:49:37.055Z,7.22
2022-12-06T00:52:05.442Z,7.72
2022-12-06T00:54:33.382Z,6.65
2022-12-06T00:57:01.330Z,8.82
2022-12-06T00:59:30.612Z,9.60
2022-12-06T01:01:58.882Z,12.50
2022-12-06T01:04:26.769Z,9.50
2022-12-06T01:06:54.866Z,8.20
2022-12-06T01:09:22.948Z,8.32
2022-12-06T01:11:50.799Z,9.50
2022-12-06T01:14:18.643Z,9.35
2022-12-06T01:16:48.106Z,9.50
2022-12-06T01:19:16.081Z,9.73
2022-12-06T01:21:43.932Z,8.13
2022-12-06T01:24:11.838Z,11.68
2022-12-06T01:26:39.697Z,8.38
2022-12-06T01:29:07.618Z,9.52
2022-12-06T01:31:38.998Z,9.88
2022-12-06T01:34:14.601Z,9.32
2022-12-06T01:36:42.515Z,8.70
2022-12-06T01:39:11.409Z,9.30
2022-12-06T01:41:40.146Z,10.07
2022-12-06T01:44:08.656Z,10.50
2022-12-06T01:46:40.793Z,10.82
2022-12-06T01:49:18.280Z,11.10
2022-12-06T01:51:50.522Z,10.32
2022-12-06T01:54:21.039Z,10.98
2022-12-06T01:56:50.661Z,9.98
2022-12-06T01:59:18.875Z,9.13
2022-12-06T02:01:47.965Z,9.65
2022-12-06T02:04:18.289Z,10.07
2022-12-06T02:06:47.819Z,11.75
2022-12-06T02:09:18.223Z,12.43
2022-12-06T02:11:47.356Z,11.57
2022-12-06T02:14:18.840Z,10.48
2022-12-06T02:16:59.194Z,10.43
2022-12-06T02:20:03.740Z,12.48
2022-12-06T02:22:50.123Z,10.68
2022-12-06T02:25:47.806Z,11.93
2022-12-06T02:28:38.227Z,12.25
2022-12-06T02:31:12.262Z,12.80
2022-12-06T02:33:47.042Z,11.82
2022-12-06T02:36:23.664Z,12.20
2022-12-06T02:38:55.151Z,13.18
2022-12-06T02:41:28.410Z,14.15
2022-12-06T02:43:59.928Z,12.70
2022-12-06T02:46:34.627Z,12.55
2022-12-06T02:49:05.184Z,15.45
2022-12-06T02:51:36.050Z,16.25
2022-12-06T02:54:09.937Z,14.80
2022-12-06T02:56:37.811Z,21.45
2022-12-06T02:59:05.917Z,15.23
2022-12-06T03:01:42.024Z,15.02
2022-12-06T03:04:46.590Z,13.10
2022-12-06T03:07:32.875Z,16.02
2022-12-06T03:10:26.404Z,12.95
2022-12-06T03:13:05.550Z,14.57
2022-12-06T03:15:41.062Z,15.00
2022-12-06T03:18:17.350Z,13.82
2022-12-06T03:20:51.024Z,14.15
2022-12-06T03:23:24.722Z,13.10
2022-12-06T03:25:54.611Z,14.82
2022-12-06T03:28:23.253Z,19.08
2022-12-06T03:30:54.313Z,16.38
2022-12-06T03:33:27.232Z,17.25
2022-12-06T03:35:56.297Z,15.38
2022-12-06T03:38:30.528Z,14.63
2022-12-06T03:41:02.461Z,13.85
2022-12-06T03:43:30.751Z,14.68
2022-12-06T03:46:05.417Z,16.25
2022-12-06T03:48:39.841Z,17.98
2022-12-06T03:51:11.293Z,17.50
2022-12-06T03:53:47.836Z,18.50
2022-12-06T03:56:16.090Z,15.88
2022-12-06T03:58:43.951Z,16.17
2022-12-06T04:01:11.797Z,17.02
2022-12-06T04:03:41.122Z,18.35
2022-12-06T04:06:10.125Z,18.27
2022-12-06T04:08:38.401Z,20.63
2022-12-06T04:11:06.687Z,20.73
2022-12-06T04:13:35.674Z,17.48
2022-12-06T04:16:04.045Z,20.45
2022-12-06T04:18:30.921Z,18.25
2022-12-06T04:21:19.828Z,20.88
2022-12-06T04:23:50.416Z,21.95
2022-12-06T04:26:20.752Z,18.58
2022-12-06T04:29:06.647Z,20.02
2022-12-06T04:31:52.198Z,23.48
2022-12-06T04:34:37.569Z,21.38
2022-12-06T04:37:25.128Z,22.13
2022-12-06T04:39:53.004Z,18.65
2022-12-06T04:42:38.403Z,17.50
2022-12-06T04:45:07.214Z,19.70
2022-12-06T04:47:35.095Z,18.40
2022-12-06T04:50:03.260Z,21.23
2022-12-06T04:52:35.689Z,20.25
2022-12-06T04:55:04.997Z,17.65
2022-12-06T04:57:32.964Z,17.02
2022-12-06T05:00:01.168Z,16.80
2022-12-06T05:02:29.245Z,19.98
2022-12-06T05:04:57.445Z,18.25
2022-12-06T05:07:25.275Z,17.40
2022-12-06T05:09:54.504Z,16.85
2022-12-06T05:12:22.431Z,20.08
2022-12-06T05:14:50.305Z,15.13
2022-12-06T05:17:18.330Z,17.42
2022-12-06T05:19:46.194Z,17.30
2022-12-06T05:22:14.042Z,21.60
2022-12-06T05:24:41.896Z,17.23
2022-12-06T05:27:11.174Z,16.00
2022-12-06T05:29:39.040Z,23.63
2022-12-06T05:32:07.721Z,18.17
2022-12-06T05:34:35.538Z,18.58
2022-12-06T05:37:03.414Z,18.70
2022-12-06T05:39:31.297Z,16.00
2022-12-06T05:41:59.166Z,20.77
2022-12-06T05:44:28.382Z,16.92
2022-12-06T05:46:56.268Z,15.82
2022-12-06T05:49:24.156Z,13.32
2022-12-06T05:51:52.004Z,14.50
2022-12-06T05:54:20.502Z,14.20
2022-12-06T05:56:50.927Z,14.50
2022-12-06T05:59:18.994Z,15.48
2022-12-06T06:01:48.275Z,15.70
2022-12-06T06:04:16.222Z,14.80
2022-12-06T06:06:44.114Z,14.00
2022-12-06T06:09:11.951Z,14.23
2022-12-06T06:11:39.794Z,13.98
2022-12-06T06:14:07.667Z,15.50
2022-12-06T06:16:35.574Z,13.00
2022-12-06T06:19:04.859Z,12.55
2022-12-06T06:21:33.588Z,13.70
2022-12-06T06:24:01.529Z,16.42
2022-12-06T06:26:29.829Z,17.00
2022-12-06T06:28:57.851Z,11.38
2022-12-06T06:31:25.733Z,11.70
2022-12-06T06:33:53.735Z,13.30
2022-12-06T06:36:22.977Z,11.45
2022-12-06T06:38:50.831Z,10.52
2022-12-06T06:41:18.917Z,12.65
2022-12-06T06:43:46.740Z,12.05
2022-12-06T06:46:14.681Z,11.75
2022-12-06T06:48:42.656Z,13.27
2022-12-06T06:51:12.233Z,12.15
2022-12-06T06:53:42.003Z,13.02
2022-12-06T06:56:10.368Z,12.55
2022-12-06T06:58:38.269Z,10.65
2022-12-06T07:01:08.292Z,11.68
2022-12-06T07:03:37.014Z,15.63
2022-12-06T07:06:09.099Z,12.00
2022-12-06T07:08:37.061Z,13.48
2022-12-06T07:11:06.708Z,12.43
2022-12-06T07:13:34.744Z,9.57
2022-12-06T07:16:04.861Z,14.77
2022-12-06T07:18:33.451Z,11.63
2022-12-06T07:21:03.854Z,12.57
2022-12-06T07:23:33.184Z,15.82
2022-12-06T07:26:02.687Z,13.60
2022-12-06T07:28:31.974Z,9.15
2022-12-06T07:30:59.924Z,12.65
2022-12-06T07:33:27.853Z,15.82
2022-12-06T07:36:12.801Z,12.80
2022-12-06T07:38:42.311Z,13.50
2022-12-06T07:41:30.934Z,11.98
2022-12-06T07:44:20.100Z,14.48
2022-12-06T07:46:48.830Z,17.00
2022-12-06T07:49:18.013Z,21.00
2022-12-06T07:51:46.851Z,14.05
2022-12-06T07:54:15.084Z,15.07
2022-12-06T07:56:43.982Z,12.68
2022-12-06T07:59:13.683Z,14.43
2022-12-06T08:01:41.937Z,12.02
2022-12-06T08:04:10.843Z,9.23
2022-12-06T08:06:38.869Z,9.55
2022-12-06T08:09:07.303Z,9.45
2022-12-06T08:11:35.663Z,12.93
2022-12-06T08:14:04.030Z,10.23
2022-12-06T08:16:33.343Z,17.83
2022-12-06T08:19:01.485Z,20.65
2022-12-06T08:21:29.478Z,21.05
2022-12-06T08:23:57.584Z,13.05
2022-12-06T08:26:25.519Z,11.75
2022-12-06T08:28:53.592Z,15.18
2022-12-06T08:31:24.065Z,7.25
2022-12-06T08:33:53.367Z,11.05
2022-12-06T08:36:22.965Z,6.10
2022-12-06T08:38:52.173Z,15.75
2022-12-06T08:41:40.226Z,12.25
2022-12-06T08:44:11.424Z,24.10
2022-12-06T08:46:39.680Z,20.83
2022-12-06T08:49:09.001Z,19.52
2022-12-06T08:51:37.580Z,19.10
2022-12-06T08:54:06.779Z,16.65
2022-12-06T08:56:34.920Z,16.52
2022-12-06T08:59:02.868Z,21.20
2022-12-06T09:01:37.855Z,15.02
2022-12-06T09:04:09.397Z,13.05
2022-12-06T09:06:39.324Z,9.40
2022-12-06T09:09:07.870Z,16.25
2022-12-06T09:11:35.756Z,10.30
2022-12-06T09:14:03.722Z,12.60
2022-12-06T09:16:32.117Z,9.07
2022-12-06T09:19:00.032Z,13.55
2022-12-06T09:21:30.631Z,13.38
2022-12-06T09:23:59.557Z,13.48
2022-12-06T09:26:28.307Z,11.93
2022-12-06T09:28:57.611Z,12.48
2022-12-06T09:31:26.446Z,12.20
2022-12-06T09:33:54.385Z,12.43
2022-12-06T09:36:24.994Z,14.32
2022-12-06T09:38:58.420Z,11.18
2022-12-06T09:42:09.439Z,12.80
2022-12-06T09:44:56.649Z,12.52
2022-12-06T09:47:36.269Z,12.88
2022-12-06T09:50:13.471Z,17.35
2022-12-06T09:52:57.189Z,16.83
2022-12-06T09:55:39.435Z,22.00
2022-12-06T09:58:18.731Z,17.45
2022-12-06T10:00:50.443Z,14.30
2022-12-06T10:03:37.895Z,17.42
2022-12-06T10:06:13.060Z,10.35
2022-12-06T10:09:01.620Z,10.20
2022-12-06T10:11:49.369Z,9.57
2022-12-06T10:14:30.498Z,14.40
2022-12-06T10:17:09.428Z,12.75
2022-12-06T10:19:51.328Z,9.90
2022-12-06T10:22:31.632Z,10.15
2022-12-06T10:25:07.464Z,10.07
2022-12-06T10:27:39.870Z,9.45
2022-12-06T10:30:11.483Z,10.40
2022-12-06T10:32:52.706Z,14.30
2022-12-06T10:35:34.278Z,10.60
2022-12-06T10:38:12.311Z,8.73
2022-12-06T10:40:51.633Z,10.07
2022-12-06T10:43:27.084Z,12.18
2022-12-06T10:46:24.119Z,10.52
2022-12-06T10:49:01.884Z,12.73
2022-12-06T10:51:36.952Z,10.70
2022-12-06T10:54:14.479Z,10.75
2022-12-06T10:56:44.473Z,14.18
2022-12-06T10:59:24.928Z,9.13
2022-12-06T11:01:54.240Z,12.10
2022-12-06T11:04:26.485Z,8.57
2022-12-06T11:06:59.749Z,9.70
2022-12-06T11:09:39.006Z,7.20
2022-12-06T11:12:24.176Z,9.93
2022-12-06T11:14:59.770Z,10.32
2022-12-06T11:17:31.073Z,9.82
2022-12-06T11:20:04.780Z,10.82
2022-12-06T11:22:41.996Z,11.40
2022-12-06T11:25:18.996Z,11.23
2022-12-06T11:27:53.632Z,11.60
2022-12-06T11:30:23.112Z,12.50
2022-12-06T11:32:52.972Z,11.52
2022-12-06T11:35:23.089Z,12.32
2022-12-06T11:37:55.220Z,11.35
2022-12-06T11:40:27.784Z,10.98
2022-12-06T11:42:57.786Z,11.40
2022-12-06T11:45:31.016Z,12.07
2022-12-06T11:48:01.952Z,11.50
2022-12-06T11:50:31.547Z,15.88
2022-12-06T11:53:03.897Z,12.20
2022-12-06T11:55:37.852Z,11.65
2022-12-06T11:58:10.690Z,11.00
2022-12-06T12:00:57.615Z,9.80
2022-12-06T12:03:29.954Z,10.18
2022-12-06T12:06:26.534Z,9.55
2022-12-06T12:09:01.123Z,9.15
2022-12-06T12:11:32.230Z,10.98
2022-12-06T12:14:04.043Z,10.23
2022-12-06T12:16:37.451Z,10.82
2022-12-06T12:19:21.830Z,9.93
2022-12-06T12:21:54.300Z,12.27
2022-12-06T12:27:45.235Z,10.98
2022-12-06T12:30:26.357Z,14.35
2022-12-06T12:33:15.179Z,11.35
2022-12-06T12:35:45.159Z,9.40
2022-12-06T12:38:22.183Z,8.73
2022-12-06T12:40:53.406Z,10.38
2022-12-06T12:43:24.317Z,10.18
2022-12-06T12:46:17.823Z,10.63
2022-12-06T12:48:49.559Z,11.00
2022-12-06T12:51:34.112Z,12.57
2022-12-06T12:54:04.894Z,10.07
2022-12-06T12:56:36.091Z,10.43
2022-12-06T12:59:07.831Z,11.57
2022-12-06T13:01:45.004Z,10.27
2022-12-06T13:04:25.027Z,10.25
2022-12-06T13:06:56.985Z,9.57
2022-12-06T13:09:29.269Z,11.70
2022-12-06T13:12:03.502Z,9.48
2022-12-06T13:14:34.029Z,13.10
2022-12-06T13:17:07.933Z,10.77
2022-12-06T13:19:41.712Z,9.20
2022-12-06T13:22:17.448Z,9.50
2022-12-06T13:24:48.445Z,9.90
2022-12-06T13:27:20.809Z,11.88
2022-12-06T13:29:55.312Z,9.50
2022-12-06T13:32:29.182Z,13.90
2022-12-06T13:35:01.011Z,14.35
2022-12-06T13:37:37.197Z,14.48
2022-12-06T13:40:06.869Z,16.80
2022-12-06T13:42:46.797Z,13.57
2022-12-06T13:45:41.571Z,12.25
2022-12-06T13:48:37.343Z,13.50
2022-12-06T13:51:12.778Z,10.35
2022-12-06T13:54:14.135Z,11.93
2022-12-06T13:56:42.627Z,13.05
2022-12-06T13:59:40.671Z,11.27
2022-12-06T14:02:51.061Z,16.77
2022-12-06T14:08:36.296Z,10.73
2022-12-06T14:11:21.302Z,12.45
2022-12-06T14:13:59.684Z,9.88
2022-12-06T14:16:32.688Z,11.48
2022-12-06T14:19:01.354Z,9.95
2022-12-06T14:21:35.878Z,9.77
2022-12-06T14:24:06.102Z,12.55
2022-12-06T14:26:36.152Z,7.75
2022-12-06T14:29:04.106Z,14.82
2022-12-06T14:31:41.065Z,9.02
2022-12-06T14:34:26.410Z,7.93
2022-12-06T14:36:55.086Z,7.80
2022-12-06T14:39:27.341Z,8.02
2022-12-06T14:42:14.691Z,9.38
2022-12-06T14:44:49.365Z,6.90
2022-12-06T14:47:18.853Z,9.77
2022-12-06T14:50:09.642Z,8.50
2022-12-06T14:52:37.849Z,7.93
2022-12-06T14:55:19.115Z,6.95
2022-12-06T14:57:49.146Z,9.95
2022-12-06T15:00:26.675Z,8.13
2022-12-06T15:03:04.692Z,9.90
2022-12-06T15:05:34.524Z,9.52
2022-12-06T15:08:30.369Z,7.25
2022-12-06T15:11:03.119Z,9.30
2022-12-06T15:13:30.177Z,5.95
2022-12-06T15:16:15.258Z,6.82
2022-12-06T15:18:45.930Z,10.88
2022-12-06T15:21:15.261Z,7.82
2022-12-06T15:23:49.788Z,6.15
2022-12-06T15:26:20.673Z,7.63
2022-12-06T15:28:48.973Z,10.18
2022-12-06T15:31:20.175Z,9.25
2022-12-06T15:33:48.750Z,8.27
2022-12-06T15:36:19.163Z,8.35
2022-12-06T15:38:47.316Z,6.57
2022-12-06T15:41:18.965Z,8.00
2022-12-06T15:43:47.064Z,10.30
2022-12-06T15:46:19.998Z,7.10
2022-12-06T15:48:48.517Z,7.82
2022-12-06T15:51:20.971Z,9.07
2022-12-06T15:53:50.022Z,9.77
2022-12-06T15:56:21.841Z,8.13
2022-12-06T15:58:50.771Z,6.75
2022-12-06T16:01:21.515Z,9.32
2022-12-06T16:03:49.520Z,9.57
2022-12-06T16:06:19.271Z,9.00
2022-12-06T16:08:48.431Z,10.18
2022-12-06T16:11:18.541Z,7.40
2022-12-06T16:13:48.054Z,8.35
2022-12-06T16:16:16.616Z,11.27
2022-12-06T16:18:44.796Z,8.20
2022-12-06T16:21:21.494Z,11.57
2022-12-06T16:24:14.168Z,9.85
2022-12-06T16:26:45.220Z,8.55
2022-12-06T16:29:17.036Z,9.50
2022-12-06T16:31:46.796Z,8.55
2022-12-06T16:34:15.794Z,10.45
2022-12-06T16:37:01.423Z,10.05
2022-12-06T16:39:31.078Z,10.43
2022-12-06T16:41:58.945Z,8.93
2022-12-06T16:44:28.771Z,10.05
2022-12-06T16:46:57.069Z,11.27
2022-12-06T16:52:14.988Z,10.43
2022-12-06T16:54:43.001Z,11.30
2022-12-06T16:57:12.255Z,14.57
2022-12-06T16:59:42.411Z,14.38
2022-12-06T17:02:26.445Z,12.50
2022-12-06T17:04:54.713Z,11.75
2022-12-06T17:07:22.791Z,10.45
2022-12-06T17:09:50.731Z,11.68
2022-12-06T17:12:18.877Z,11.13
2022-12-06T17:14:48.226Z,12.05
2022-12-06T17:17:19.251Z,12.48
2022-12-06T17:19:47.227Z,11.52
2022-12-06T17:22:16.821Z,12.40
2022-12-06T17:24:44.970Z,11.77
2022-12-06T17:27:14.743Z,12.60
2022-12-06T17:29:44.043Z,11.57
2022-12-06T17:32:14.364Z,10.43
2022-12-06T17:34:42.487Z,11.18
2022-12-06T17:37:10.779Z,13.63
2022-12-06T17:39:38.695Z,11.82
2022-12-06T17:42:24.777Z,10.77
2022-12-06T17:44:52.952Z,11.27
2022-12-06T17:47:22.379Z,12.32
2022-12-06T17:49:50.257Z,11.82
2022-12-06T17:52:18.475Z,13.00
2022-12-06T17:54:46.296Z,12.98
2022-12-06T17:57:17.262Z,12.80
2022-12-06T17:59:46.565Z,12.85
2022-12-06T18:02:17.269Z,11.98
2022-12-06T18:04:48.289Z,10.13
2022-12-06T18:07:18.092Z,11.07
2022-12-06T18:09:46.559Z,12.63
2022-12-06T18:12:16.423Z,12.27
2022-12-06T18:14:44.487Z,11.80
2022-12-06T18:17:12.923Z,12.35
2022-12-06T18:19:42.022Z,12.65
2022-12-06T18:22:11.420Z,11.98
2022-12-06T18:24:39.275Z,12.38
2022-12-06T18:27:07.955Z,12.98
2022-12-06T18:29:36.421Z,12.30
2022-12-06T18:32:04.842Z,11.38
2022-12-06T18:34:32.993Z,12.70
2022-12-06T18:37:01.020Z,16.25
2022-12-06T18:39:30.447Z,10.85
2022-12-06T18:41:58.626Z,14.27
2022-12-06T18:44:26.903Z,12.88
2022-12-06T18:46:54.785Z,13.18
2022-12-06T18:49:22.735Z,12.90
2022-12-06T18:51:50.760Z,14.27
2022-12-06T18:54:18.816Z,12.02
2022-12-06T18:56:48.076Z,12.07
2022-12-06T18:59:15.932Z,12.00
2022-12-06T19:01:43.924Z,12.88
2022-12-06T19:04:14.928Z,13.73
2022-12-06T19:06:44.790Z,13.27
2022-12-06T19:09:15.620Z,17.63
2022-12-06T19:11:45.910Z,13.82
2022-12-06T19:14:16.543Z,11.45
2022-12-06T19:16:46.340Z,11.60
2022-12-06T19:19:17.350Z,12.90
2022-12-06T19:21:46.682Z,12.90
2022-12-06T19:24:17.430Z,13.25
2022-12-06T19:26:46.047Z,12.85
2022-12-06T19:29:16.486Z,11.10
2022-12-06T19:31:44.433Z,11.70
2022-12-06T19:34:16.758Z,12.20
2022-12-06T19:36:45.769Z,16.98
2022-12-06T19:39:14.522Z,12.30
2022-12-06T19:42:00.977Z,12.88
2022-12-06T19:44:31.118Z,15.70
2022-12-06T19:46:59.879Z,12.50
2022-12-06T19:49:29.012Z,12.80
2022-12-06T19:51:57.356Z,10.02
2022-12-06T19:54:27.200Z,12.75
2022-12-06T19:56:57.028Z,12.15
2022-12-06T19:59:26.674Z,12.05
2022-12-06T20:01:58.248Z,12.02
2022-12-06T20:04:28.418Z,11.25
2022-12-06T20:06:57.083Z,13.45
2022-12-06T20:09:28.020Z,13.05
2022-12-06T20:12:02.995Z,12.05
2022-12-06T20:14:34.838Z,12.82
2022-12-06T20:17:05.664Z,14.52
2022-12-06T20:19:33.875Z,16.02
2022-12-06T20:22:01.925Z,15.18
2022-12-06T20:24:30.000Z,14.63
2022-12-06T20:26:57.931Z,18.85
2022-12-06T20:29:27.140Z,13.55
2022-12-06T20:31:58.076Z,16.02
2022-12-06T20:34:28.912Z,15.07
2022-12-06T20:36:57.244Z,16.90
2022-12-06T20:39:27.749Z,14.13
2022-12-06T20:41:55.716Z,11.43
2022-12-06T20:44:24.181Z,14.45
2022-12-06T20:46:53.591Z,13.27
2022-12-06T20:49:21.839Z,13.90
2022-12-06T20:51:53.463Z,12.85
2022-12-06T20:54:23.116Z,13.07
2022-12-06T20:56:53.501Z,15.45
2022-12-06T20:59:21.936Z,15.73
2022-12-06T21:01:50.127Z,14.88
2022-12-06T21:04:18.473Z,15.18
2022-12-06T21:06:46.421Z,16.50
2022-12-06T21:09:15.693Z,15.43
2022-12-06T21:11:43.558Z,14.52
2022-12-06T21:14:13.678Z,18.77
2022-12-06T21:16:42.868Z,15.25
2022-12-06T21:19:14.385Z,16.83
2022-12-06T21:21:45.386Z,19.52
2022-12-06T21:24:17.701Z,15.52
2022-12-06T21:26:46.114Z,15.02
2022-12-06T21:29:16.777Z,16.80
2022-12-06T21:31:44.805Z,16.48
2022-12-06T21:34:13.624Z,16.38
2022-12-06T21:36:42.099Z,16.05
2022-12-06T21:39:11.716Z,15.43
2022-12-06T21:41:41.519Z,13.77
2022-12-06T21:44:09.522Z,16.60
2022-12-06T21:46:37.501Z,17.58
2022-12-06T21:49:05.656Z,15.02
2022-12-06T21:51:33.804Z,17.30
2022-12-06T21:54:01.925Z,16.83
2022-12-06T21:56:31.650Z,15.80
2022-12-06T21:59:01.526Z,15.30
2022-12-06T22:01:31.147Z,18.48
2022-12-06T22:04:01.125Z,19.85
2022-12-06T22:06:29.041Z,14.45
2022-12-06T22:08:58.650Z,19.38
2022-12-06T22:11:26.701Z,16.90
2022-12-06T22:13:54.578Z,17.45
2022-12-06T22:16:23.877Z,16.92
2022-12-06T22:18:54.943Z,17.00
2022-12-06T22:21:25.415Z,16.92
2022-12-06T22:23:53.792Z,18.73
2022-12-06T22:26:23.717Z,17.65
2022-12-06T22:28:51.849Z,20.45
2022-12-06T22:31:21.821Z,14.75
2022-12-06T22:33:52.489Z,15.95
2022-12-06T22:36:22.433Z,17.23
2022-12-06T22:38:51.176Z,18.35
2022-12-06T22:41:19.566Z,15.95
2022-12-06T22:43:50.819Z,19.52
2022-12-06T22:46:19.202Z,16.35
2022-12-06T22:48:47.826Z,15.57
2022-12-06T22:51:19.196Z,15.07
2022-12-06T22:53:48.715Z,18.35
2022-12-06T22:56:16.877Z,17.75
2022-12-06T22:58:45.063Z,18.75
2022-12-06T23:01:16.820Z,15.45
2022-12-06T23:03:45.689Z,19.80
2022-12-06T23:06:14.389Z,17.00
2022-12-06T23:08:44.060Z,17.08
2022-12-06T23:11:14.152Z,25.40
2022-12-06T23:13:42.155Z,18.67
2022-12-06T23:16:13.128Z,17.80
2022-12-06T23:18:41.330Z,19.13
2022-12-06T23:21:11.922Z,16.48
2022-12-06T23:23:41.259Z,17.67
2022-12-06T23:26:13.625Z,18.75
2022-12-06T23:28:41.764Z,18.70
2022-12-06T23:31:12.870Z,18.85
2022-12-06T23:33:41.478Z,21.92
2022-12-06T23:36:12.303Z,23.33
2022-12-06T23:38:40.931Z,20.67
2022-12-06T23:41:12.547Z,21.63
2022-12-06T23:43:41.122Z,22.42
2022-12-06T23:46:11.855Z,24.15
2022-12-06T23:48:40.771Z,20.67
2022-12-06T23:51:10.541Z,23.92
2022-12-06T23:53:39.203Z,23.63
2022-12-06T23:56:11.058Z,24.05
2022-12-06T23:58:39.468Z,23.30
